Time;durP1;ratioP1;P1;durP2;ratioP2;P2;SDS_P1;SDS_P2;PMS_P1;PMS_P2;Temp;Humidity;BMP_temperature;BMP_pressure;BME280_temperature;BME280_humidity;BME280_pressure;Samples;Min_cycle;Max_cycle;Signal;HPM_P1;HPM_P2
2023/06/09 00:02:13;;;;;;;7.00;2.85;;;20.80;1.00;;;;;;4880786;29;20092;-49
2023/06/09 00:04:41;;;;;;;7.38;2.45;;;20.80;1.00;;;;;;4881135;29;20041;-49
2023/06/09 00:07:07;;;;;;;8.43;2.85;;;20.80;1.00;;;;;;4880990;29;20112;-52
2023/06/09 00:09:34;;;;;;;5.03;2.58;;;20.80;1.00;;;;;;4881165;29;20089;-50
2023/06/09 00:12:02;;;;;;;5.57;2.75;;;20.80;1.00;;;;;;4880715;29;20076;-53
2023/06/09 00:14:29;;;;;;;3.88;2.42;;;20.80;1.00;;;;;;4880875;29;20047;-50
2023/06/09 00:16:56;;;;;;;9.43;3.30;;;20.80;1.00;;;;;;4879942;29;20041;-50
2023/06/09 00:19:24;;;;;;;4.63;2.22;;;20.80;1.00;;;;;;4880947;29;20548;-49
2023/06/09 00:21:51;;;;;;;6.80;3.42;;;20.80;1.00;;;;;;4880396;29;20041;-50
2023/06/09 00:24:22;;;;;;;5.38;2.38;;;20.80;1.00;;;;;;4880951;29;20508;-54
2023/06/09 00:26:51;;;;;;;6.43;2.92;;;20.80;1.00;;;;;;4880803;29;20485;-54
2023/06/09 00:29:21;;;;;;;5.53;2.65;;;20.80;1.00;;;;;;4880358;29;20047;-49
2023/06/09 00:31:48;;;;;;;5.70;2.55;;;20.80;1.00;;;;;;4879631;29;20048;-50
2023/06/09 00:34:15;;;;;;;7.57;2.15;;;20.80;1.00;;;;;;4880635;29;20041;-50
2023/06/09 00:36:42;;;;;;;6.68;2.38;;;20.70;1.00;;;;;;4879319;29;20470;-50
2023/06/09 00:39:09;;;;;;;7.10;2.45;;;20.80;1.00;;;;;;4880396;29;20045;-51
2023/06/09 00:41:39;;;;;;;7.13;2.40;;;20.70;1.00;;;;;;4880262;29;20617;-50
2023/06/09 00:44:06;;;;;;;6.43;2.47;;;20.70;1.00;;;;;;4880524;29;20045;-50
2023/06/09 00:46:35;;;;;;;3.60;2.08;;;20.70;1.00;;;;;;4885850;29;20466;-50
2023/06/09 00:49:02;;;;;;;6.95;2.53;;;20.70;1.00;;;;;;4879198;29;20037;-52
2023/06/09 00:51:32;;;;;;;6.78;3.22;;;20.70;1.00;;;;;;4879813;29;20045;-52
2023/06/09 00:53:59;;;;;;;6.28;2.80;;;20.70;1.00;;;;;;4879064;29;20382;-54
2023/06/09 00:56:26;;;;;;;7.00;2.42;;;20.70;1.00;;;;;;4880066;29;20050;-49
2023/06/09 00:58:53;;;;;;;5.13;2.92;;;20.70;1.00;;;;;;4878899;29;20421;-53
2023/06/09 01:01:20;;;;;;;5.55;2.00;;;20.70;1.00;;;;;;4878438;29;20088;-52
2023/06/09 01:03:47;;;;;;;8.07;2.88;;;20.70;1.00;;;;;;4878868;29;20489;-52
2023/06/09 01:06:30;;;;;;;5.95;2.25;;;20.70;1.00;;;;;;4878648;29;20045;-51
2023/06/09 01:09:04;;;;;;;6.20;2.53;;;20.70;1.00;;;;;;4878894;29;20053;-50
2023/06/09 01:11:50;;;;;;;7.68;3.15;;;20.70;1.00;;;;;;4879692;29;20053;-50
2023/06/09 01:14:23;;;;;;;6.45;2.80;;;20.60;1.00;;;;;;4878465;29;20140;-53
2023/06/09 01:16:58;;;;;;;5.60;2.35;;;20.60;1.00;;;;;;4878684;29;20469;-50
2023/06/09 01:19:34;;;;;;;7.97;2.63;;;20.60;1.00;;;;;;4878424;29;20044;-53
2023/06/09 01:22:27;;;;;;;6.20;2.22;;;20.70;1.00;;;;;;4879532;29;20045;-53
2023/06/09 01:25:04;;;;;;;6.45;2.72;;;20.70;1.00;;;;;;4879887;29;20128;-51
2023/06/09 01:27:36;;;;;;;5.03;2.90;;;20.60;1.00;;;;;;4878314;29;20053;-49
2023/06/09 01:30:06;;;;;;;5.68;2.33;;;20.60;1.00;;;;;;4877974;29;20088;-52
2023/06/09 01:32:34;;;;;;;4.88;1.98;;;20.60;1.00;;;;;;4879666;29;20033;-52
2023/06/09 01:35:02;;;;;;;6.80;2.50;;;20.60;1.00;;;;;;4879666;29;20041;-50
2023/06/09 01:37:30;;;;;;;5.55;2.35;;;20.60;1.00;;;;;;4878012;29;20045;-49
2023/06/09 01:39:56;;;;;;;6.32;2.33;;;20.60;1.00;;;;;;4878047;29;20099;-52
2023/06/09 01:42:24;;;;;;;9.82;2.10;;;20.60;1.00;;;;;;4877558;29;20140;-49
2023/06/09 01:44:51;;;;;;;9.05;2.47;;;20.60;1.00;;;;;;4882265;29;20044;-50
2023/06/09 01:47:19;;;;;;;5.15;3.38;;;20.60;1.00;;;;;;4880566;29;20102;-50
2023/06/09 01:50:03;;;;;;;7.20;2.30;;;20.60;1.00;;;;;;4878028;29;20464;-51
2023/06/09 01:53:00;;;;;;;6.65;2.50;;;20.60;1.00;;;;;;4879363;29;20405;-49
2023/06/09 01:55:36;;;;;;;5.72;2.42;;;20.60;1.00;;;;;;4879232;29;20087;-50
2023/06/09 01:58:16;;;;;;;4.45;2.53;;;20.50;1.00;;;;;;4877940;29;20049;-53
2023/06/09 02:00:47;;;;;;;5.95;2.47;;;20.50;1.00;;;;;;4877836;29;20546;-53
2023/06/09 02:03:19;;;;;;;5.95;2.50;;;20.60;1.00;;;;;;4877929;29;20072;-51
2023/06/09 02:05:48;;;;;;;6.75;2.50;;;20.60;1.00;;;;;;4879422;29;20056;-50
2023/06/09 02:08:15;;;;;;;13.73;2.65;;;20.50;1.00;;;;;;4879310;29;20053;-51
2023/06/09 02:10:42;;;;;;;4.55;2.75;;;20.60;1.00;;;;;;4882046;29;20402;-51
2023/06/09 02:13:21;;;;;;;6.75;3.03;;;20.50;1.00;;;;;;4883249;29;20064;-52
2023/06/09 02:15:48;;;;;;;6.85;2.55;;;20.50;1.00;;;;;;4883419;29;20581;-50
2023/06/09 02:18:21;;;;;;;6.05;2.78;;;20.50;1.00;;;;;;4877384;29;20144;-54
2023/06/09 02:20:49;;;;;;;7.13;3.05;;;20.50;1.00;;;;;;4878350;29;20063;-50
2023/06/09 02:23:19;;;;;;;4.47;1.88;;;20.50;1.00;;;;;;4878273;29;20123;-52
2023/06/09 02:25:46;;;;;;;7.65;2.65;;;20.50;1.00;;;;;;4877453;29;20041;-50
2023/06/09 02:28:15;;;;;;;4.38;1.88;;;20.50;1.00;;;;;;4877305;29;20045;-52
2023/06/09 02:30:42;;;;;;;5.78;2.50;;;20.50;1.00;;;;;;4877145;29;20071;-51
2023/06/09 02:33:10;;;;;;;4.90;2.30;;;20.50;1.00;;;;;;4878491;29;20045;-49
2023/06/09 02:35:37;;;;;;;6.43;2.17;;;20.50;1.00;;;;;;4878462;29;20044;-52
2023/06/09 02:38:07;;;;;;;5.47;1.95;;;20.50;1.00;;;;;;4878495;29;20474;-51
2023/06/09 02:40:35;;;;;;;10.10;3.25;;;20.50;1.00;;;;;;4878137;29;20124;-52
2023/06/09 02:43:01;;;;;;;4.53;2.03;;;20.50;1.00;;;;;;4878372;29;20089;-50
2023/06/09 02:45:28;;;;;;;12.57;3.58;;;20.50;1.00;;;;;;4884188;29;20037;-53
2023/06/09 02:47:56;;;;;;;8.45;2.45;;;20.50;1.00;;;;;;4877197;29;20045;-52
2023/06/09 02:50:23;;;;;;;10.05;2.85;;;20.50;1.00;;;;;;4876753;29;20414;-52
2023/06/09 02:52:55;;;;;;;8.55;2.88;;;20.40;1.00;;;;;;4876346;29;20045;-51
2023/06/09 02:55:22;;;;;;;4.95;2.63;;;20.50;1.00;;;;;;4877128;29;20059;-50
2023/06/09 02:57:51;;;;;;;7.57;2.60;;;20.40;1.00;;;;;;4877331;29;20471;-51
2023/06/09 03:00:21;;;;;;;4.72;2.22;;;20.50;1.00;;;;;;4876404;29;20057;-52
2023/06/09 03:02:51;;;;;;;6.95;2.03;;;20.40;1.00;;;;;;4876861;29;20493;-53
2023/06/09 03:05:21;;;;;;;6.03;2.58;;;20.40;1.00;;;;;;4876781;29;20053;-50
2023/06/09 03:07:50;;;;;;;11.88;3.13;;;20.40;1.00;;;;;;4876896;29;20468;-53
2023/06/09 03:10:19;;;;;;;7.28;2.67;;;20.40;1.00;;;;;;4876363;29;20367;-53
2023/06/09 03:12:47;;;;;;;4.93;2.15;;;20.40;1.00;;;;;;4876684;29;20048;-48
2023/06/09 03:15:16;;;;;;;6.53;2.13;;;20.40;1.00;;;;;;4876694;29;20053;-52
2023/06/09 03:17:44;;;;;;;7.40;2.33;;;20.40;1.00;;;;;;4868470;29;20097;-50
2023/06/09 03:20:12;;;;;;;3.95;1.85;;;20.40;1.00;;;;;;4874639;29;20053;-54
2023/06/09 03:22:41;;;;;;;5.15;2.15;;;20.40;1.00;;;;;;4876692;29;20520;-49
2023/06/09 03:25:09;;;;;;;4.95;2.90;;;20.40;1.00;;;;;;4876543;29;20073;-51
2023/06/09 03:27:35;;;;;;;9.02;2.30;;;20.30;1.00;;;;;;4877268;29;20045;-52
2023/06/09 03:30:05;;;;;;;5.88;2.50;;;20.40;1.00;;;;;;4876358;29;20045;-53
2023/06/09 03:32:34;;;;;;;9.95;2.67;;;20.30;1.00;;;;;;4876558;29;20505;-49
2023/06/09 03:35:01;;;;;;;5.63;2.22;;;20.40;1.00;;;;;;4876620;29;20501;-53
2023/06/09 03:37:27;;;;;;;8.13;3.45;;;20.40;1.00;;;;;;4876360;29;20119;-53
2023/06/09 03:39:55;;;;;;;8.50;3.08;;;20.30;1.00;;;;;;4876415;29;20045;-49
2023/06/09 03:42:25;;;;;;;11.23;3.30;;;20.40;1.00;;;;;;4876174;29;20080;-53
2023/06/09 03:44:58;;;;;;;13.23;3.30;;;20.30;1.00;;;;;;4881036;29;20045;-52
2023/06/09 03:47:26;;;;;;;7.47;3.28;;;20.40;1.00;;;;;;4878606;29;20108;-53
2023/06/09 03:49:54;;;;;;;6.63;2.83;;;20.30;1.00;;;;;;4876490;29;20043;-49
2023/06/09 03:52:22;;;;;;;8.55;2.60;;;20.30;1.00;;;;;;4876077;29;20052;-54
2023/06/09 03:54:50;;;;;;;7.75;2.42;;;20.30;1.00;;;;;;4876533;29;20049;-49
2023/06/09 03:57:17;;;;;;;8.05;2.75;;;20.30;1.00;;;;;;4876218;29;20088;-53
2023/06/09 03:59:44;;;;;;;11.63;2.50;;;20.30;1.00;;;;;;4876261;29;20127;-51
2023/06/09 04:02:11;;;;;;;6.50;2.38;;;20.30;1.00;;;;;;4877406;29;20041;-53
2023/06/09 04:04:38;;;;;;;5.40;2.55;;;20.30;1.00;;;;;;4861758;29;20113;-50
2023/06/09 04:07:05;;;;;;;5.38;2.08;;;20.30;1.00;;;;;;4879907;29;20140;-52
2023/06/09 04:09:34;;;;;;;7.30;2.67;;;20.30;1.00;;;;;;4879541;29;20097;-49
2023/06/09 04:12:01;;;;;;;5.85;2.67;;;20.30;1.00;;;;;;4879389;29;20084;-53
2023/06/09 04:14:29;;;;;;;7.53;2.58;;;20.30;1.00;;;;;;4879599;29;20048;-49
2023/06/09 04:16:56;;;;;;;5.00;2.72;;;20.30;1.00;;;;;;4879691;29;20501;-52
2023/06/09 04:19:23;;;;;;;9.43;2.20;;;20.30;1.00;;;;;;4879426;29;20048;-52
2023/06/09 04:21:51;;;;;;;7.65;2.50;;;20.30;1.00;;;;;;4879207;29;20045;-53
2023/06/09 04:24:18;;;;;;;10.00;2.72;;;20.20;1.00;;;;;;4880825;29;20458;-53
2023/06/09 04:26:47;;;;;;;8.70;2.60;;;20.30;1.00;;;;;;4871847;29;20045;-50
2023/06/09 04:29:15;;;;;;;7.50;2.40;;;20.30;1.00;;;;;;4879342;29;20047;-52
2023/06/09 04:31:44;;;;;;;5.93;2.45;;;20.30;1.00;;;;;;4879066;29;20037;-50
2023/06/09 04:34:12;;;;;;;5.75;2.40;;;20.30;1.00;;;;;;4879094;29;20040;-50
2023/06/09 04:36:44;;;;;;;8.73;2.60;;;20.30;1.00;;;;;;4878514;29;20068;-52
2023/06/09 04:39:13;;;;;;;8.52;2.83;;;20.30;1.00;;;;;;4879071;29;20048;-54
2023/06/09 04:41:41;;;;;;;5.40;2.40;;;20.30;1.00;;;;;;4878834;29;20049;-53
2023/06/09 04:44:09;;;;;;;10.77;3.42;;;20.20;1.00;;;;;;4879040;29;20132;-52
2023/06/09 04:46:41;;;;;;;4.50;2.60;;;20.20;1.00;;;;;;4879192;29;20503;-52
2023/06/09 04:49:12;;;;;;;7.65;2.47;;;20.20;1.00;;;;;;4879061;29;20060;-51
2023/06/09 04:51:46;;;;;;;7.97;2.67;;;20.20;1.00;;;;;;4878476;29;20052;-53
2023/06/09 04:54:18;;;;;;;6.43;2.72;;;20.20;1.00;;;;;;4894806;29;20143;-53
2023/06/09 04:56:52;;;;;;;5.78;2.47;;;20.20;1.00;;;;;;4878812;29;20068;-52
2023/06/09 04:59:22;;;;;;;5.65;2.58;;;20.20;1.00;;;;;;4879084;29;20049;-52
2023/06/09 05:01:51;;;;;;;7.97;2.78;;;20.20;1.00;;;;;;4878351;29;20147;-49
2023/06/09 05:04:19;;;;;;;5.28;3.00;;;20.20;1.00;;;;;;4878911;29;20045;-50
2023/06/09 05:06:46;;;;;;;8.13;2.88;;;20.20;1.00;;;;;;4878621;29;20148;-50
2023/06/09 05:09:13;;;;;;;6.78;2.42;;;20.20;1.00;;;;;;4879966;29;20051;-54
2023/06/09 05:11:41;;;;;;;8.70;3.30;;;20.20;1.00;;;;;;4878239;29;20101;-50
2023/06/09 05:14:08;;;;;;;11.80;3.05;;;20.20;1.00;;;;;;4878638;29;20100;-54
2023/06/09 05:16:37;;;;;;;5.03;2.25;;;20.20;1.00;;;;;;4877692;29;20045;-52
2023/06/09 05:19:06;;;;;;;10.50;2.60;;;20.20;1.00;;;;;;4878705;29;20041;-54
2023/06/09 05:21:34;;;;;;;8.40;2.55;;;20.20;1.00;;;;;;4878328;29;20505;-54
2023/06/09 05:24:00;;;;;;;7.80;3.20;;;20.20;1.00;;;;;;4878351;29;20049;-52
2023/06/09 05:26:29;;;;;;;7.82;2.88;;;20.20;1.00;;;;;;4878270;29;20064;-53
2023/06/09 05:28:56;;;;;;;5.32;2.42;;;20.20;1.00;;;;;;4879768;29;20044;-50
2023/06/09 05:31:23;;;;;;;10.77;2.60;;;20.20;1.00;;;;;;4862671;29;20627;-50
2023/06/09 05:33:51;;;;;;;6.57;2.45;;;20.20;1.00;;;;;;4871042;29;20382;-49
2023/06/09 05:36:18;;;;;;;8.05;3.30;;;20.20;1.00;;;;;;4878177;29;20081;-53
2023/06/09 05:38:50;;;;;;;10.48;3.20;;;20.20;1.00;;;;;;4878202;29;20053;-50
2023/06/09 05:41:17;;;;;;;6.63;2.67;;;20.20;1.00;;;;;;4879045;29;20097;-49
2023/06/09 05:43:44;;;;;;;5.60;2.42;;;20.20;1.00;;;;;;4878335;29;20083;-49
2023/06/09 05:46:10;;;;;;;6.28;3.05;;;20.20;1.00;;;;;;4880174;29;20120;-54
2023/06/09 05:48:37;;;;;;;7.18;2.50;;;20.20;1.00;;;;;;4879389;29;20124;-53
2023/06/09 05:51:04;;;;;;;7.05;2.63;;;20.20;1.00;;;;;;4879130;29;20037;-53
2023/06/09 05:53:33;;;;;;;11.38;2.80;;;20.20;1.00;;;;;;4879375;29;20482;-52
2023/06/09 05:56:00;;;;;;;7.07;2.42;;;20.20;1.00;;;;;;4879088;29;20041;-49
2023/06/09 05:58:27;;;;;;;6.53;3.42;;;20.20;1.00;;;;;;4879164;29;20041;-54
2023/06/09 06:00:57;;;;;;;5.05;2.58;;;20.20;1.00;;;;;;4878861;29;20051;-53
2023/06/09 06:03:26;;;;;;;7.50;2.80;;;20.20;1.00;;;;;;4878919;29;20093;-51
2023/06/09 06:05:53;;;;;;;7.38;2.97;;;20.20;1.00;;;;;;4871700;29;20115;-51
2023/06/09 06:08:20;;;;;;;5.68;2.92;;;20.20;1.00;;;;;;4878962;29;20056;-49
2023/06/09 06:10:47;;;;;;;8.90;2.65;;;20.20;1.00;;;;;;4878576;29;20045;-52
2023/06/09 06:13:14;;;;;;;7.28;2.25;;;20.20;1.00;;;;;;4879044;29;20041;-53
2023/06/09 06:15:40;;;;;;;4.97;2.13;;;20.20;1.00;;;;;;4878692;29;20064;-51
2023/06/09 06:18:07;;;;;;;6.63;2.13;;;20.20;1.00;;;;;;4878784;29;20048;-49
2023/06/09 06:20:34;;;;;;;6.45;2.95;;;20.30;1.00;;;;;;4878301;29;20521;-49
2023/06/09 06:23:01;;;;;;;5.40;2.67;;;20.30;1.00;;;;;;4878618;29;20052;-52
2023/06/09 06:25:28;;;;;;;11.38;2.65;;;20.30;1.00;;;;;;4878806;29;20044;-50
2023/06/09 06:27:56;;;;;;;3.38;2.03;;;20.30;1.00;;;;;;4878617;29;20104;-49
2023/06/09 06:30:22;;;;;;;5.05;2.65;;;20.30;1.00;;;;;;4878347;29;20401;-51
2023/06/09 06:32:51;;;;;;;4.47;2.50;;;20.30;1.00;;;;;;4877005;29;20061;-52
2023/06/09 06:35:28;;;;;;;8.30;2.95;;;20.30;1.00;;;;;;4878528;29;20053;-54
2023/06/09 06:37:56;;;;;;;6.85;2.47;;;20.30;1.00;;;;;;4870887;29;20521;-53
2023/06/09 06:40:24;;;;;;;6.28;2.47;;;20.30;1.00;;;;;;4878135;29;20052;-49
2023/06/09 06:42:52;;;;;;;6.65;2.95;;;20.30;1.00;;;;;;4878394;29;20051;-50
2023/06/09 06:45:43;;;;;;;7.80;2.45;;;20.30;1.00;;;;;;4878246;29;20081;-49
2023/06/09 06:48:10;;;;;;;4.97;2.30;;;20.30;1.00;;;;;;4876929;29;20044;-52
2023/06/09 06:50:37;;;;;;;6.63;3.30;;;20.40;1.00;;;;;;4877848;29;20528;-49
2023/06/09 06:53:04;;;;;;;9.10;2.65;;;20.40;1.00;;;;;;4878418;29;20041;-49
2023/06/09 06:55:31;;;;;;;4.93;2.90;;;20.40;1.00;;;;;;4876896;29;20047;-49
2023/06/09 06:58:02;;;;;;;8.75;2.33;;;20.40;1.00;;;;;;4878463;29;20405;-50
2023/06/09 07:00:29;;;;;;;5.70;2.65;;;20.40;1.00;;;;;;4877882;29;20048;-49
2023/06/09 07:02:56;;;;;;;5.50;2.42;;;20.30;1.00;;;;;;4870574;29;20048;-52
2023/06/09 07:05:23;;;;;;;7.65;3.03;;;20.40;1.00;;;;;;4878084;29;20049;-49
2023/06/09 07:07:50;;;;;;;9.18;3.05;;;20.30;1.00;;;;;;4877937;29;20132;-49
2023/06/09 07:10:18;;;;;;;7.43;3.05;;;20.40;1.00;;;;;;4877690;29;20541;-50
2023/06/09 07:12:45;;;;;;;8.38;2.60;;;20.40;1.00;;;;;;4876662;29;20033;-49
2023/06/09 07:15:12;;;;;;;8.32;2.97;;;20.40;1.00;;;;;;4877969;29;20048;-49
2023/06/09 07:17:39;;;;;;;5.78;2.70;;;20.40;1.00;;;;;;4877856;29;20458;-50
2023/06/09 07:20:06;;;;;;;7.05;2.35;;;20.40;1.00;;;;;;4877531;29;20045;-50
2023/06/09 07:22:34;;;;;;;9.77;2.75;;;20.40;1.00;;;;;;4878233;29;20490;-49
2023/06/09 07:25:01;;;;;;;10.40;3.30;;;20.40;1.00;;;;;;4877935;29;20047;-51
2023/06/09 07:27:28;;;;;;;7.63;2.75;;;20.40;1.00;;;;;;4877792;29;20045;-49
2023/06/09 07:29:55;;;;;;;9.50;2.72;;;20.40;1.00;;;;;;4877604;29;20041;-49
2023/06/09 07:32:22;;;;;;;5.68;2.80;;;20.40;1.00;;;;;;4877860;29;20056;-50
2023/06/09 07:34:50;;;;;;;6.40;2.17;;;20.50;1.00;;;;;;4877759;29;20049;-50
2023/06/09 07:37:17;;;;;;;6.85;2.88;;;20.40;1.00;;;;;;4878099;29;20423;-51
2023/06/09 07:39:44;;;;;;;7.68;2.63;;;20.50;1.00;;;;;;4878873;29;20064;-50
2023/06/09 07:42:11;;;;;;;5.72;3.65;;;20.40;1.00;;;;;;4881271;29;20041;-51
2023/06/09 07:44:39;;;;;;;7.18;2.88;;;20.50;1.00;;;;;;4882886;29;20044;-49
2023/06/09 07:47:07;;;;;;;8.52;3.03;;;20.50;1.00;;;;;;4881530;29;20060;-49
2023/06/09 07:49:34;;;;;;;5.57;2.80;;;20.50;1.00;;;;;;4881233;29;20037;-49
2023/06/09 07:52:01;;;;;;;5.05;2.15;;;20.50;1.00;;;;;;4880990;29;20041;-50
2023/06/09 07:54:46;;;;;;;5.05;2.28;;;20.50;1.00;;;;;;4881012;29;20052;-49
2023/06/09 07:57:13;;;;;;;3.17;2.30;;;20.50;1.00;;;;;;4881330;29;20076;-49
2023/06/09 07:59:40;;;;;;;8.85;3.03;;;20.50;1.00;;;;;;4881224;29;20089;-49
2023/06/09 08:02:07;;;;;;;7.78;2.60;;;20.50;1.00;;;;;;4879745;29;20056;-49
2023/06/09 08:04:33;;;;;;;5.75;3.20;;;20.50;1.00;;;;;;4880997;29;20659;-49
2023/06/09 08:07:01;;;;;;;5.00;2.55;;;20.50;1.00;;;;;;4879623;29;20049;-52
2023/06/09 08:09:28;;;;;;;6.53;2.17;;;20.60;1.00;;;;;;4879705;29;20061;-50
2023/06/09 08:11:55;;;;;;;5.07;2.55;;;20.50;1.00;;;;;;4880802;29;20174;-52
2023/06/09 08:14:22;;;;;;;4.35;2.63;;;20.60;1.00;;;;;;4881021;29;20139;-51
2023/06/09 08:16:49;;;;;;;5.25;2.35;;;20.60;1.00;;;;;;4880823;29;20520;-54
2023/06/09 08:19:16;;;;;;;7.80;2.60;;;20.60;1.00;;;;;;4880828;29;20041;-51
2023/06/09 08:21:43;;;;;;;8.15;3.00;;;20.60;1.00;;;;;;4880494;29;20052;-50
2023/06/09 08:24:11;;;;;;;9.90;2.88;;;20.60;1.00;;;;;;4880901;29;20477;-48
2023/06/09 08:26:40;;;;;;;10.43;2.80;;;20.60;1.00;;;;;;4880827;29;20048;-49
2023/06/09 08:29:07;;;;;;;7.63;3.70;;;20.60;1.00;;;;;;4880852;29;20041;-49
2023/06/09 08:31:37;;;;;;;5.07;2.65;;;20.60;1.00;;;;;;4879268;29;20114;-48
2023/06/09 08:34:04;;;;;;;5.13;2.90;;;20.60;1.00;;;;;;4880821;29;20057;-49
2023/06/09 08:36:31;;;;;;;5.60;2.42;;;20.60;1.00;;;;;;4880495;29;20067;-50
2023/06/09 08:38:58;;;;;;;4.65;2.13;;;20.60;1.00;;;;;;4880450;29;20552;-52
2023/06/09 08:41:28;;;;;;;4.43;2.00;;;20.60;1.00;;;;;;4880318;29;20055;-52
2023/06/09 08:43:55;;;;;;;6.78;2.55;;;20.60;1.00;;;;;;4880481;29;20381;-52
2023/06/09 08:46:24;;;;;;;6.68;3.15;;;20.70;1.00;;;;;;4882603;29;20512;-50
2023/06/09 08:48:57;;;;;;;6.20;2.67;;;20.60;1.00;;;;;;4880202;29;20049;-53
2023/06/09 08:51:25;;;;;;;7.82;3.17;;;20.60;1.00;;;;;;4878920;29;20081;-50
2023/06/09 08:53:53;;;;;;;8.73;3.17;;;20.70;1.00;;;;;;4880356;29;20523;-53
2023/06/09 08:56:23;;;;;;;9.32;3.08;;;20.70;1.00;;;;;;4880358;29;20053;-54
2023/06/09 08:58:52;;;;;;;9.43;3.03;;;20.70;1.00;;;;;;4880171;29;20045;-49
2023/06/09 09:01:19;;;;;;;7.80;3.28;;;20.70;1.00;;;;;;4879770;29;20052;-53
2023/06/09 09:03:50;;;;;;;7.18;3.25;;;20.60;1.00;;;;;;4880059;29;20469;-51
2023/06/09 09:06:17;;;;;;;6.22;2.97;;;20.70;1.00;;;;;;4880225;29;20049;-51
2023/06/09 09:08:44;;;;;;;7.15;2.78;;;20.70;1.00;;;;;;4880308;29;20056;-51
2023/06/09 09:11:11;;;;;;;7.25;2.78;;;20.70;1.00;;;;;;4879958;29;20452;-53
2023/06/09 09:13:39;;;;;;;5.45;3.28;;;20.70;1.00;;;;;;4879743;29;20052;-51
2023/06/09 09:16:13;;;;;;;5.18;2.97;;;20.70;1.00;;;;;;4879729;29;20045;-51
2023/06/09 09:18:45;;;;;;;5.68;3.13;;;20.70;1.00;;;;;;4879854;29;20053;-51
2023/06/09 09:21:22;;;;;;;6.30;2.88;;;20.70;1.00;;;;;;4879656;29;20043;-52
2023/06/09 09:24:01;;;;;;;3.13;2.22;;;20.70;1.00;;;;;;4879808;29;20072;-51
2023/06/09 09:26:29;;;;;;;6.35;2.70;;;20.70;1.00;;;;;;4878440;29;20037;-54
2023/06/09 09:29:03;;;;;;;8.77;3.10;;;20.70;1.00;;;;;;4878196;29;20493;-51
2023/06/09 09:31:32;;;;;;;6.43;3.10;;;20.70;1.00;;;;;;4879542;29;20091;-54
2023/06/09 09:34:00;;;;;;;6.70;3.00;;;20.70;1.00;;;;;;4879552;29;20290;-51
2023/06/09 09:36:27;;;;;;;8.82;2.40;;;20.70;1.00;;;;;;4879558;29;20409;-49
2023/06/09 09:38:56;;;;;;;5.35;2.10;;;20.80;1.00;;;;;;4879345;29;20052;-50
2023/06/09 09:41:23;;;;;;;6.97;2.92;;;20.70;1.00;;;;;;4879137;29;20045;-53
2023/06/09 09:43:56;;;;;;;6.15;3.42;;;20.80;1.00;;;;;;4879107;29;20048;-53
2023/06/09 09:46:23;;;;;;;4.38;2.92;;;20.70;1.00;;;;;;4881958;29;20045;-52
2023/06/09 09:48:50;;;;;;;4.82;2.70;;;20.80;1.00;;;;;;4879316;29;20059;-51
2023/06/09 09:51:23;;;;;;;4.32;3.10;;;20.70;1.00;;;;;;4879063;29;20428;-53
2023/06/09 09:53:52;;;;;;;11.03;2.60;;;20.80;1.00;;;;;;4879234;29;20493;-49
2023/06/09 09:56:23;;;;;;;9.98;3.20;;;20.80;1.00;;;;;;4879410;29;20043;-49
2023/06/09 09:58:52;;;;;;;7.40;3.22;;;20.80;1.00;;;;;;4879390;29;20041;-49
2023/06/09 10:01:24;;;;;;;7.07;2.42;;;20.80;1.00;;;;;;4878801;29;20714;-49
2023/06/09 10:03:55;;;;;;;4.43;2.40;;;20.80;1.00;;;;;;4878736;29;20052;-49
2023/06/09 10:06:29;;;;;;;6.53;2.50;;;20.80;1.00;;;;;;4877864;29;20370;-51
2023/06/09 10:08:58;;;;;;;4.82;2.15;;;20.80;1.00;;;;;;4879038;29;20080;-49
2023/06/09 10:11:31;;;;;;;6.72;2.78;;;20.80;1.00;;;;;;4878742;29;20041;-50
2023/06/09 10:14:00;;;;;;;8.68;3.03;;;20.80;1.00;;;;;;4878856;29;20052;-51
2023/06/09 10:16:28;;;;;;;5.88;2.60;;;20.80;1.00;;;;;;4878924;29;20113;-49
2023/06/09 10:18:56;;;;;;;7.63;3.15;;;20.80;1.00;;;;;;4878609;29;20133;-50
2023/06/09 10:21:25;;;;;;;7.40;3.60;;;20.80;1.00;;;;;;4878530;29;20060;-49
2023/06/09 10:23:53;;;;;;;8.80;2.70;;;20.80;1.00;;;;;;4878866;29;20045;-49
2023/06/09 10:26:22;;;;;;;8.45;3.03;;;20.80;1.00;;;;;;4878715;29;20421;-50
2023/06/09 10:28:49;;;;;;;11.13;3.17;;;20.80;1.00;;;;;;4878626;29;20400;-51
2023/06/09 10:31:18;;;;;;;6.43;2.72;;;20.80;1.00;;;;;;4878347;29;20053;-53
2023/06/09 10:33:46;;;;;;;7.95;2.80;;;20.80;1.00;;;;;;4878471;29;20059;-50
2023/06/09 10:36:14;;;;;;;7.53;3.60;;;20.80;1.00;;;;;;4878445;29;20105;-49
2023/06/09 10:38:43;;;;;;;8.85;3.58;;;20.80;1.00;;;;;;4878504;29;20101;-51
2023/06/09 10:41:20;;;;;;;10.20;3.55;;;20.80;1.00;;;;;;4870924;29;20049;-49
2023/06/09 10:44:17;;;;;;;5.68;2.95;;;20.80;1.00;;;;;;4878710;29;20049;-50
2023/06/09 10:46:46;;;;;;;4.63;2.97;;;20.80;1.00;;;;;;4881172;29;20398;-51
2023/06/09 10:49:25;;;;;;;6.55;3.10;;;20.80;1.00;;;;;;4878630;29;20485;-50
2023/06/09 10:51:53;;;;;;;7.55;2.95;;;20.80;1.00;;;;;;4877963;29;20144;-54
2023/06/09 10:54:35;;;;;;;10.32;2.83;;;20.80;1.00;;;;;;4878652;29;20136;-50
2023/06/09 10:57:35;;;;;;;5.75;3.15;;;20.80;1.00;;;;;;4878109;29;20049;-52
2023/06/09 11:00:10;;;;;;;8.60;3.53;;;20.80;1.00;;;;;;4878102;29;20045;-50
2023/06/09 11:02:38;;;;;;;6.40;3.13;;;20.80;1.00;;;;;;4878528;29;20108;-53
2023/06/09 11:05:05;;;;;;;8.48;3.83;;;20.80;1.00;;;;;;4878253;29;20072;-50
2023/06/09 11:07:41;;;;;;;8.40;3.15;;;20.80;1.00;;;;;;4877362;29;20048;-53
2023/06/09 11:10:08;;;;;;;8.43;3.85;;;20.80;1.00;;;;;;4876877;29;20072;-50
2023/06/09 11:12:38;;;;;;;7.55;3.75;;;20.80;1.00;;;;;;4878278;29;20049;-48
2023/06/09 11:15:07;;;;;;;8.98;3.35;;;20.80;1.00;;;;;;4877565;29;20049;-52
2023/06/09 11:17:36;;;;;;;7.43;3.10;;;20.80;1.00;;;;;;4878459;29;20128;-52
2023/06/09 11:20:11;;;;;;;7.30;3.13;;;20.90;1.00;;;;;;4878093;29;20060;-49
2023/06/09 11:22:42;;;;;;;11.48;3.70;;;20.80;1.00;;;;;;4878221;29;20089;-50
2023/06/09 11:25:18;;;;;;;6.13;3.00;;;20.90;1.00;;;;;;4878225;29;20561;-49
2023/06/09 11:27:54;;;;;;;9.30;3.67;;;20.80;1.00;;;;;;4877976;29;20056;-48
2023/06/09 11:30:27;;;;;;;9.23;4.68;;;20.80;1.00;;;;;;4876902;29;20073;-51
2023/06/09 11:32:54;;;;;;;8.52;3.22;;;20.80;1.00;;;;;;4877994;29;20498;-50
2023/06/09 11:35:31;;;;;;;8.55;3.25;;;20.90;1.00;;;;;;4878078;29;20061;-52
2023/06/09 11:38:02;;;;;;;12.35;4.03;;;20.90;1.00;;;;;;4876772;29;20045;-51
2023/06/09 11:40:31;;;;;;;11.63;4.10;;;20.90;1.00;;;;;;4877606;29;20064;-52
2023/06/09 11:43:00;;;;;;;7.55;3.08;;;20.90;1.00;;;;;;4878308;29;20124;-49
2023/06/09 11:45:30;;;;;;;7.55;3.40;;;20.90;1.00;;;;;;4881153;29;20072;-52
2023/06/09 11:47:59;;;;;;;7.60;3.13;;;20.90;1.00;;;;;;4877812;29;20544;-49
2023/06/09 11:50:45;;;;;;;10.27;2.67;;;20.90;1.00;;;;;;4877525;29;20042;-51
2023/06/09 11:53:14;;;;;;;8.85;3.42;;;20.90;1.00;;;;;;4870822;29;20116;-50
2023/06/09 11:55:41;;;;;;;9.73;3.30;;;20.90;1.00;;;;;;4878056;29;20049;-51
2023/06/09 11:58:09;;;;;;;8.00;3.72;;;20.90;1.00;;;;;;4877838;29;20045;-52
2023/06/09 12:00:40;;;;;;;8.30;3.00;;;20.90;1.00;;;;;;4877947;29;20424;-52
2023/06/09 12:03:09;;;;;;;10.52;3.75;;;20.90;1.00;;;;;;4877880;29;20053;-52
2023/06/09 12:05:37;;;;;;;8.63;3.83;;;20.90;1.00;;;;;;4877799;29;20549;-52
2023/06/09 12:08:10;;;;;;;11.07;4.78;;;20.90;1.00;;;;;;4869830;29;20045;-51
2023/06/09 12:10:37;;;;;;;5.68;3.33;;;20.90;1.00;;;;;;4877965;29;20061;-51
2023/06/09 12:13:04;;;;;;;7.03;3.08;;;20.90;1.00;;;;;;4877319;29;20392;-52
2023/06/09 12:15:31;;;;;;;7.85;3.50;;;20.90;1.00;;;;;;4877963;29;20049;-50
2023/06/09 12:18:01;;;;;;;8.88;3.47;;;20.90;1.00;;;;;;4878158;29;20404;-50
2023/06/09 12:20:29;;;;;;;8.18;4.00;;;20.90;1.00;;;;;;4877549;29;20049;-52
2023/06/09 12:23:06;;;;;;;10.50;3.60;;;20.90;1.00;;;;;;4877772;29;20509;-52
2023/06/09 12:25:37;;;;;;;6.35;3.53;;;20.90;1.00;;;;;;4878672;29;20397;-51
2023/06/09 12:28:15;;;;;;;7.07;3.45;;;20.90;1.00;;;;;;4880859;29;20045;-54
2023/06/09 12:30:47;;;;;;;8.10;3.75;;;20.90;1.00;;;;;;4880720;29;20049;-53
2023/06/09 12:33:19;;;;;;;;;;;20.90;1.00;;;;;;4888677;29;20049;-51
2023/06/09 12:35:48;;;;;;;8.70;3.75;;;20.90;1.00;;;;;;4881523;29;19931;-49
2023/06/09 12:38:21;;;;;;;5.82;2.85;;;20.90;1.00;;;;;;4872218;29;20064;-51
2023/06/09 12:41:11;;;;;;;12.43;4.97;;;20.90;1.00;;;;;;4880574;29;20114;-50
2023/06/09 12:43:52;;;;;;;9.50;3.70;;;20.90;1.00;;;;;;4876267;29;20454;-50
2023/06/09 12:46:27;;;;;;;8.77;3.70;;;20.90;1.00;;;;;;4884761;29;20080;-49
2023/06/09 12:49:03;;;;;;;6.50;3.60;;;20.90;1.00;;;;;;4880539;29;20059;-51
2023/06/09 12:51:31;;;;;;;9.65;3.75;;;20.90;1.00;;;;;;4880234;29;20041;-50
2023/06/09 12:53:59;;;;;;;13.05;4.72;;;20.90;1.00;;;;;;4879128;29;20045;-53
2023/06/09 12:56:26;;;;;;;9.52;3.63;;;20.90;1.00;;;;;;4885253;29;20076;-51
2023/06/09 12:58:54;;;;;;;8.77;4.93;;;20.90;1.00;;;;;;4882795;29;20128;-49
2023/06/09 13:01:22;;;;;;;9.55;3.97;;;20.90;1.00;;;;;;4878790;29;20048;-55
2023/06/09 13:03:50;;;;;;;6.43;3.72;;;20.90;1.00;;;;;;4880477;29;20564;-51
2023/06/09 13:06:17;;;;;;;8.02;4.82;;;20.90;1.00;;;;;;4872770;29;20132;-52
2023/06/09 13:08:45;;;;;;;9.18;3.80;;;20.90;1.00;;;;;;4880212;29;20612;-50